Time;durP1;ratioP1;P1;durP2;ratioP2;P2;SDS_P1;SDS_P2;PMS_P1;PMS_P2;Temp;Humidity;BMP_temperature;BMP_pressure;BME280_temperature;BME280_humidity;BME280_pressure;Samples;Min_cycle;Max_cycle;Signal;HPM_P1;HPM_P2
2023/12/20 00:00:01;;;;;;;1.23;0.50;;;18.80;99.90;;;;;;4996457;28;20257;-72
2023/12/20 00:02:29;;;;;;;0.87;0.50;;;18.70;99.90;;;;;;4996215;28;20254;-72
2023/12/20 00:04:56;;;;;;;1.43;0.70;;;18.70;99.90;;;;;;4997048;28;20181;-72
2023/12/20 00:07:24;;;;;;;1.83;0.70;;;18.70;99.90;;;;;;4979308;28;20199;-72
2023/12/20 00:09:52;;;;;;;0.47;0.47;;;18.60;99.90;;;;;;4996592;28;20179;-72
2023/12/20 00:12:20;;;;;;;1.60;0.60;;;18.60;99.90;;;;;;4982622;28;20229;-72
2023/12/20 00:14:47;;;;;;;1.57;0.67;;;18.70;99.90;;;;;;4996302;28;20171;-72
2023/12/20 00:17:15;;;;;;;0.73;0.60;;;18.70;99.90;;;;;;4996443;28;20191;-72
2023/12/20 00:19:42;;;;;;;1.60;0.63;;;18.80;99.90;;;;;;4996622;28;20212;-72
2023/12/20 00:22:10;;;;;;;2.87;0.70;;;18.70;99.90;;;;;;4996447;28;20207;-72
2023/12/20 00:24:38;;;;;;;0.93;0.63;;;18.70;99.90;;;;;;4978705;28;20183;-72
2023/12/20 00:27:06;;;;;;;1.50;0.80;;;18.80;99.90;;;;;;4996429;28;20183;-72
2023/12/20 00:29:33;;;;;;;2.50;0.80;;;18.80;99.90;;;;;;4974127;28;20171;-72
2023/12/20 00:32:01;;;;;;;1.67;0.70;;;18.90;99.90;;;;;;4995228;28;20451;-72
2023/12/20 00:34:29;;;;;;;3.27;0.80;;;18.70;99.90;;;;;;4977418;28;20190;-73
2023/12/20 00:36:57;;;;;;;1.70;0.70;;;18.80;99.90;;;;;;4994580;28;20205;-73
2023/12/20 00:39:24;;;;;;;5.03;0.97;;;18.80;99.90;;;;;;4994277;28;20186;-73
2023/12/20 00:41:52;;;;;;;4.03;1.27;;;18.80;99.90;;;;;;4995018;28;20820;-73
2023/12/20 00:44:19;;;;;;;2.23;0.90;;;18.80;99.90;;;;;;4996181;28;20203;-73
2023/12/20 00:46:47;;;;;;;3.07;0.90;;;18.80;99.90;;;;;;4997618;28;20182;-73
2023/12/20 00:49:15;;;;;;;1.03;0.93;;;18.90;99.90;;;;;;4995948;28;20618;-72
2023/12/20 00:51:43;;;;;;;4.83;1.17;;;18.80;99.90;;;;;;4994884;28;20229;-72
2023/12/20 00:54:10;;;;;;;0.60;0.50;;;18.90;99.90;;;;;;4995321;28;20210;-72
2023/12/20 00:56:38;;;;;;;0.80;0.40;;;18.80;99.90;;;;;;4994486;28;20666;-73
2023/12/20 00:59:06;;;;;;;0.83;0.43;;;18.90;99.90;;;;;;4992885;28;20292;-73
2023/12/20 01:01:33;;;;;;;1.00;0.53;;;18.90;99.90;;;;;;4994301;28;20299;-73
2023/12/20 01:04:01;;;;;;;0.93;0.50;;;18.90;99.90;;;;;;4994356;28;20249;-73
2023/12/20 01:06:29;;;;;;;1.23;0.80;;;18.90;99.90;;;;;;4994063;28;20529;-73
2023/12/20 01:08:57;;;;;;;1.70;0.60;;;18.70;99.90;;;;;;4994334;28;20187;-73
2023/12/20 01:11:25;;;;;;;1.47;0.60;;;18.80;99.90;;;;;;4994218;28;20240;-72
2023/12/20 01:13:53;;;;;;;1.73;0.60;;;18.90;99.90;;;;;;4993888;28;20547;-70
2023/12/20 01:16:20;;;;;;;1.27;0.60;;;19.00;99.90;;;;;;4994227;28;20591;-72
2023/12/20 01:18:49;;;;;;;1.00;0.53;;;18.90;99.90;;;;;;4993932;28;20183;-72
2023/12/20 01:21:16;;;;;;;1.50;0.60;;;18.90;99.90;;;;;;4993205;28;20318;-72
2023/12/20 01:23:44;;;;;;;1.83;0.63;;;18.90;99.90;;;;;;4993981;28;20186;-72
2023/12/20 01:26:12;;;;;;;1.33;0.50;;;18.80;99.90;;;;;;4993853;28;20183;-72
2023/12/20 01:28:39;;;;;;;0.97;0.60;;;18.90;99.90;;;;;;4993217;28;20194;-72
2023/12/20 01:31:07;;;;;;;2.17;0.60;;;18.90;99.90;;;;;;4976091;28;20192;-72
2023/12/20 01:33:35;;;;;;;0.40;0.40;;;19.10;99.90;;;;;;4974535;28;20187;-73
2023/12/20 01:36:03;;;;;;;0.63;0.50;;;19.00;99.90;;;;;;4984408;28;20225;-72
2023/12/20 01:38:31;;;;;;;3.43;0.70;;;18.90;99.90;;;;;;4993523;28;20195;-72
2023/12/20 01:40:59;;;;;;;1.83;0.50;;;18.90;99.90;;;;;;4993598;28;20194;-72
2023/12/20 01:43:27;;;;;;;2.77;0.50;;;18.90;99.90;;;;;;4993196;28;20197;-72
2023/12/20 01:45:58;;;;;;;2.17;0.50;;;18.80;99.90;;;;;;4993169;28;20183;-72
2023/12/20 01:48:28;;;;;;;4.77;0.80;;;18.80;99.90;;;;;;4993643;28;20225;-72
2023/12/20 01:50:56;;;;;;;2.30;0.90;;;18.80;99.90;;;;;;4993026;28;20237;-72
2023/12/20 01:53:25;;;;;;;0.87;0.50;;;18.70;99.90;;;;;;4992971;28;20187;-72
2023/12/20 01:55:56;;;;;;;0.43;0.43;;;18.80;99.90;;;;;;4987712;28;20547;-72
2023/12/20 01:58:24;;;;;;;0.63;0.50;;;18.80;99.90;;;;;;4992299;28;20227;-71
2023/12/20 02:00:52;;;;;;;1.47;0.70;;;18.70;99.90;;;;;;4993287;28;20183;-72
2023/12/20 02:03:21;;;;;;;0.83;0.60;;;18.70;99.90;;;;;;4993144;28;20236;-72
2023/12/20 02:05:50;;;;;;;1.00;0.60;;;18.80;99.90;;;;;;4992564;28;20194;-71
2023/12/20 02:08:18;;;;;;;0.40;0.40;;;18.80;99.90;;;;;;4992630;28;20209;-72
2023/12/20 02:10:46;;;;;;;0.50;0.50;;;18.70;99.90;;;;;;4993307;28;20198;-72
2023/12/20 02:13:13;;;;;;;1.17;0.43;;;18.70;99.90;;;;;;4992165;28;20652;-72
2023/12/20 02:15:43;;;;;;;1.57;0.60;;;18.80;99.90;;;;;;4993174;28;20310;-72
2023/12/20 02:18:15;;;;;;;0.80;0.40;;;18.80;99.90;;;;;;4992632;28;20197;-72
2023/12/20 02:20:42;;;;;;;2.10;0.57;;;18.70;99.90;;;;;;4992353;28;20215;-73
2023/12/20 02:23:10;;;;;;;2.77;0.50;;;18.70;99.90;;;;;;4992907;28;20728;-72
2023/12/20 02:25:38;;;;;;;1.10;0.60;;;18.70;99.90;;;;;;4992642;28;20190;-73
2023/12/20 02:28:06;;;;;;;1.33;0.50;;;18.60;99.90;;;;;;4974933;28;20186;-73
2023/12/20 02:34:47;;;;;;;0.90;0.57;;;18.80;99.90;;;;;;4992386;28;20264;-72
2023/12/20 02:37:15;;;;;;;1.43;0.53;;;18.90;99.90;;;;;;4972780;28;20480;-73
2023/12/20 02:39:43;;;;;;;1.87;0.70;;;18.80;99.90;;;;;;4992567;28;20188;-73
2023/12/20 02:42:11;;;;;;;1.57;0.67;;;18.80;99.90;;;;;;4991981;28;20222;-72
2023/12/20 02:44:38;;;;;;;2.30;0.60;;;18.90;99.90;;;;;;4992651;28;20265;-72
2023/12/20 02:47:06;;;;;;;2.63;0.60;;;18.80;99.90;;;;;;4992492;28;20186;-73
2023/12/20 02:49:34;;;;;;;2.57;0.60;;;18.80;99.90;;;;;;4992120;28;20187;-74
2023/12/20 02:52:01;;;;;;;0.40;0.40;;;18.80;99.90;;;;;;4992305;28;20193;-74
2023/12/20 02:54:29;;;;;;;1.60;0.80;;;18.80;99.90;;;;;;4992414;28;20963;-73
2023/12/20 02:56:57;;;;;;;1.60;0.43;;;18.80;99.90;;;;;;4995513;28;20183;-74
2023/12/20 02:59:24;;;;;;;0.80;0.50;;;18.70;99.90;;;;;;4998696;28;20317;-73
2023/12/20 03:01:52;;;;;;;0.77;0.50;;;18.60;99.90;;;;;;4996794;28;20211;-73
2023/12/20 03:04:20;;;;;;;3.27;0.80;;;18.60;99.90;;;;;;4991707;28;20305;-72
2023/12/20 03:06:47;;;;;;;1.93;0.70;;;18.50;99.90;;;;;;4984178;28;20193;-72
2023/12/20 03:09:15;;;;;;;0.93;0.47;;;18.60;99.90;;;;;;4992087;28;20897;-72
2023/12/20 03:11:42;;;;;;;3.13;0.80;;;18.60;99.90;;;;;;4991774;28;20334;-73
2023/12/20 03:14:10;;;;;;;1.73;0.70;;;18.70;99.90;;;;;;4993414;28;20241;-73
2023/12/20 03:16:38;;;;;;;1.17;0.70;;;18.60;99.90;;;;;;4992491;28;20197;-73
2023/12/20 03:19:06;;;;;;;0.60;0.50;;;18.60;99.90;;;;;;4991521;28;20226;-73
2023/12/20 03:21:33;;;;;;;0.97;0.57;;;18.50;99.90;;;;;;4992026;28;20210;-72
2023/12/20 03:24:01;;;;;;;2.77;0.63;;;18.60;99.90;;;;;;4991866;28;20191;-73
2023/12/20 03:26:29;;;;;;;2.63;0.70;;;18.70;99.90;;;;;;4995272;28;20183;-73
2023/12/20 03:28:56;;;;;;;3.77;0.53;;;18.70;99.90;;;;;;4996181;28;20214;-73
2023/12/20 03:31:24;;;;;;;2.63;0.77;;;18.80;99.90;;;;;;4996536;28;20182;-72
2023/12/20 03:33:53;;;;;;;3.03;0.60;;;18.70;99.90;;;;;;4995609;28;20181;-73
2023/12/20 03:36:21;;;;;;;1.37;0.60;;;18.80;99.90;;;;;;4996313;28;20182;-73
2023/12/20 03:38:49;;;;;;;1.30;0.70;;;18.90;99.90;;;;;;4995765;28;20190;-73
2023/12/20 03:41:16;;;;;;;1.43;0.70;;;18.90;99.90;;;;;;4995676;28;20199;-72
2023/12/20 03:43:44;;;;;;;1.57;0.60;;;18.90;99.90;;;;;;4978790;28;20186;-71
2023/12/20 03:46:12;;;;;;;1.70;0.87;;;19.00;99.90;;;;;;4996455;28;20171;-72
2023/12/20 03:48:40;;;;;;;2.17;0.70;;;19.00;99.90;;;;;;4995277;28;20173;-72
2023/12/20 03:51:08;;;;;;;1.27;0.70;;;19.00;99.90;;;;;;4996909;28;20187;-72
2023/12/20 03:53:35;;;;;;;0.63;0.57;;;19.00;99.90;;;;;;4996930;28;20214;-72
2023/12/20 03:56:03;;;;;;;0.67;0.63;;;19.00;99.90;;;;;;4997403;28;20185;-72
2023/12/20 03:58:31;;;;;;;1.87;0.90;;;18.90;99.90;;;;;;4976241;28;20641;-72
2023/12/20 04:00:59;;;;;;;1.07;0.70;;;18.90;99.90;;;;;;4977840;28;20172;-73
2023/12/20 04:03:27;;;;;;;1.40;0.80;;;19.00;99.90;;;;;;4950629;28;20624;-72
2023/12/20 04:05:54;;;;;;;2.00;1.00;;;19.00;99.90;;;;;;4971207;28;20193;-73
2023/12/20 04:08:22;;;;;;;1.87;0.60;;;19.10;99.90;;;;;;4976174;28;20187;-73
2023/12/20 04:10:50;;;;;;;1.30;0.70;;;19.10;99.90;;;;;;4975919;28;20544;-72
2023/12/20 04:13:18;;;;;;;0.97;0.77;;;19.00;99.90;;;;;;4976121;28;20299;-72
2023/12/20 04:15:46;;;;;;;2.63;0.60;;;19.10;99.90;;;;;;4975990;28;20202;-72
2023/12/20 04:18:13;;;;;;;1.23;0.60;;;19.10;99.90;;;;;;4975459;28;20323;-73
2023/12/20 04:20:41;;;;;;;2.07;0.70;;;19.10;99.90;;;;;;4975792;28;20223;-72
2023/12/20 04:23:09;;;;;;;2.10;0.77;;;19.00;99.90;;;;;;4974578;28;20696;-73
2023/12/20 04:25:36;;;;;;;0.60;0.47;;;19.00;99.90;;;;;;4975504;28;20180;-72
2023/12/20 04:28:04;;;;;;;1.73;0.60;;;19.00;99.90;;;;;;4975500;28;20248;-72
2023/12/20 04:30:32;;;;;;;1.97;0.77;;;19.10;99.90;;;;;;4975871;28;20187;-72
2023/12/20 04:32:59;;;;;;;1.30;0.70;;;19.10;99.90;;;;;;4981555;28;20189;-72
2023/12/20 04:35:27;;;;;;;4.30;0.70;;;19.10;99.90;;;;;;4982376;28;20206;-72
2023/12/20 04:37:55;;;;;;;2.67;0.53;;;19.20;99.90;;;;;;4976797;28;20230;-71
2023/12/20 04:40:22;;;;;;;2.30;0.60;;;19.00;99.90;;;;;;4975583;28;20168;-71
2023/12/20 04:42:50;;;;;;;1.60;0.60;;;18.90;99.90;;;;;;4975128;28;20231;-72
2023/12/20 04:45:19;;;;;;;2.10;0.80;;;19.00;99.90;;;;;;4975731;28;20660;-73
2023/12/20 04:47:47;;;;;;;1.20;0.70;;;19.00;99.90;;;;;;4974637;28;20232;-73
2023/12/20 04:50:15;;;;;;;3.47;1.13;;;19.00;99.90;;;;;;4975045;28;20211;-72
2023/12/20 04:52:43;;;;;;;0.57;0.50;;;19.10;99.90;;;;;;4975466;28;20183;-73
2023/12/20 04:55:11;;;;;;;2.13;0.70;;;19.00;99.90;;;;;;4975255;28;20806;-72
2023/12/20 04:57:39;;;;;;;1.07;0.53;;;18.70;99.90;;;;;;4974901;28;20187;-73
2023/12/20 05:00:10;;;;;;;1.70;0.87;;;18.70;99.90;;;;;;4993687;28;20813;-73
2023/12/20 05:02:38;;;;;;;1.10;0.50;;;18.70;99.90;;;;;;4993748;28;20582;-75
2023/12/20 05:05:06;;;;;;;0.90;0.63;;;18.50;99.90;;;;;;4976978;28;20190;-72
2023/12/20 05:07:34;;;;;;;0.50;0.50;;;18.60;99.90;;;;;;4994694;28;20179;-74
2023/12/20 05:10:04;;;;;;;1.27;0.60;;;18.60;99.90;;;;;;4994465;28;20277;-74
2023/12/20 05:12:32;;;;;;;0.70;0.53;;;18.50;99.90;;;;;;4994173;28;20195;-75
2023/12/20 05:14:59;;;;;;;0.80;0.60;;;18.50;99.90;;;;;;4994381;28;20248;-73
2023/12/20 05:17:28;;;;;;;0.60;0.50;;;18.60;99.90;;;;;;4993896;28;20265;-74
2023/12/20 05:19:55;;;;;;;1.40;0.60;;;18.60;99.90;;;;;;4994171;28;20237;-73
2023/12/20 05:22:23;;;;;;;0.53;0.50;;;18.60;99.90;;;;;;4993965;28;20226;-74
2023/12/20 05:24:50;;;;;;;2.00;0.73;;;18.60;99.90;;;;;;4994026;28;20179;-74
2023/12/20 05:27:18;;;;;;;0.90;0.70;;;18.70;99.90;;;;;;4994139;28;20626;-73
2023/12/20 05:29:46;;;;;;;0.50;0.50;;;18.70;99.90;;;;;;4993855;28;20205;-75
2023/12/20 05:32:13;;;;;;;0.97;0.67;;;18.60;99.90;;;;;;4993871;28;20189;-72
2023/12/20 05:34:41;;;;;;;0.40;0.40;;;18.50;99.90;;;;;;4994093;28;20633;-71
2023/12/20 05:37:09;;;;;;;0.70;0.50;;;18.40;99.90;;;;;;4993819;28;20188;-71
2023/12/20 05:39:36;;;;;;;0.50;0.50;;;18.40;99.90;;;;;;4993428;28;20275;-71
2023/12/20 05:42:04;;;;;;;1.60;0.50;;;18.40;99.90;;;;;;4993805;28;20206;-70
2023/12/20 05:44:32;;;;;;;0.77;0.60;;;18.30;99.90;;;;;;4993557;28;20217;-72
2023/12/20 05:47:00;;;;;;;1.90;0.70;;;18.30;99.90;;;;;;4993309;28;20240;-71
2023/12/20 05:49:27;;;;;;;1.23;0.67;;;18.40;99.90;;;;;;4992558;28;20182;-70
2023/12/20 05:51:55;;;;;;;1.17;0.60;;;18.50;99.90;;;;;;4975969;28;20268;-70
2023/12/20 05:54:23;;;;;;;0.83;0.60;;;18.30;99.90;;;;;;4990418;28;20186;-71
2023/12/20 05:56:50;;;;;;;0.77;0.50;;;18.20;99.90;;;;;;4993332;28;20233;-71
2023/12/20 05:59:18;;;;;;;1.70;0.50;;;18.20;99.90;;;;;;4993160;28;20237;-70
2023/12/20 06:01:46;;;;;;;2.57;0.63;;;18.20;99.90;;;;;;4993081;28;20214;-71
2023/12/20 06:04:13;;;;;;;2.30;0.80;;;18.10;99.90;;;;;;4993146;28;20179;-70
2023/12/20 06:06:45;;;;;;;1.90;0.80;;;18.20;99.90;;;;;;4993328;28;20564;-69
2023/12/20 06:09:12;;;;;;;1.83;0.77;;;18.20;99.90;;;;;;4993221;28;20183;-70
2023/12/20 06:11:40;;;;;;;0.80;0.70;;;18.10;99.90;;;;;;4993240;28;20265;-70
2023/12/20 06:14:08;;;;;;;2.17;0.70;;;18.10;99.90;;;;;;4993339;28;20767;-70
2023/12/20 06:16:36;;;;;;;1.50;0.80;;;18.20;99.90;;;;;;4992729;28;20260;-71
2023/12/20 06:19:03;;;;;;;0.70;0.70;;;18.30;99.90;;;;;;4992879;28;20186;-71
2023/12/20 06:21:32;;;;;;;0.97;0.60;;;18.30;99.90;;;;;;4993855;28;20268;-71
2023/12/20 06:24:00;;;;;;;1.87;0.70;;;18.20;99.90;;;;;;4993955;28;20194;-70
2023/12/20 06:26:28;;;;;;;3.40;0.73;;;18.20;99.90;;;;;;4994637;28;20182;-70
2023/12/20 06:28:56;;;;;;;0.80;0.50;;;18.20;99.90;;;;;;4993569;28;20712;-70
2023/12/20 06:31:23;;;;;;;2.00;0.67;;;18.10;99.90;;;;;;4993520;28;20174;-71
2023/12/20 06:33:57;;;;;;;1.63;0.70;;;18.10;99.90;;;;;;4993241;28;20256;-70
2023/12/20 06:36:30;;;;;;;0.93;0.67;;;18.10;99.90;;;;;;4992760;28;20535;-71
2023/12/20 06:38:58;;;;;;;2.20;0.60;;;18.00;99.90;;;;;;4992338;28;20186;-71
2023/12/20 06:41:26;;;;;;;1.23;0.60;;;17.90;99.90;;;;;;4992866;28;20217;-70
2023/12/20 06:43:53;;;;;;;3.87;0.90;;;18.00;99.90;;;;;;4992908;28;20186;-70
2023/12/20 06:46:21;;;;;;;2.53;0.70;;;17.90;99.90;;;;;;4992446;28;20212;-70
2023/12/20 06:48:49;;;;;;;1.57;0.80;;;18.00;99.90;;;;;;4992386;28;20676;-70
2023/12/20 06:51:19;;;;;;;1.23;0.50;;;17.90;99.90;;;;;;4992791;28;20261;-70
2023/12/20 06:53:47;;;;;;;1.40;0.80;;;18.00;99.90;;;;;;4975710;28;20285;-70
2023/12/20 06:56:16;;;;;;;0.97;0.67;;;18.00;99.90;;;;;;4992210;28;20184;-70
2023/12/20 06:58:44;;;;;;;1.13;1.03;;;18.00;99.90;;;;;;4991975;28;20592;-69
2023/12/20 07:01:16;;;;;;;1.57;0.67;;;18.00;99.90;;;;;;4992089;28;20179;-69
2023/12/20 07:03:44;;;;;;;1.07;0.60;;;18.10;99.90;;;;;;4974943;28;20209;-69
2023/12/20 07:06:12;;;;;;;1.40;0.83;;;18.00;99.90;;;;;;4992530;28;20175;-69
2023/12/20 07:08:40;;;;;;;2.77;0.70;;;18.10;99.90;;;;;;4991549;28;20209;-69
2023/12/20 07:11:08;;;;;;;4.60;0.70;;;18.10;99.90;;;;;;4992605;28;20261;-70
2023/12/20 07:13:35;;;;;;;3.33;0.70;;;18.10;99.90;;;;;;4992555;28;20187;-69
2023/12/20 07:16:03;;;;;;;1.30;0.60;;;18.20;99.90;;;;;;4991906;28;20198;-72
2023/12/20 07:18:31;;;;;;;1.43;0.60;;;18.20;99.90;;;;;;4992405;28;20237;-71
2023/12/20 07:20:59;;;;;;;3.40;1.00;;;18.20;99.90;;;;;;4974790;28;20187;-71
2023/12/20 07:23:26;;;;;;;1.07;0.50;;;18.20;99.90;;;;;;4991917;28;20588;-70
2023/12/20 07:25:54;;;;;;;1.63;0.60;;;18.30;99.90;;;;;;4992579;28;20186;-70
2023/12/20 07:28:22;;;;;;;1.10;0.67;;;18.20;99.90;;;;;;4992190;28;20193;-69
2023/12/20 07:30:50;;;;;;;1.90;0.67;;;18.20;99.90;;;;;;4991881;28;20735;-70
2023/12/20 07:33:17;;;;;;;0.60;0.60;;;18.10;99.90;;;;;;4992167;28;20182;-71
2023/12/20 07:35:45;;;;;;;3.60;1.00;;;18.10;99.90;;;;;;4992104;28;20189;-71
2023/12/20 07:38:13;;;;;;;1.83;0.73;;;18.10;99.90;;;;;;4974218;28;20254;-70
2023/12/20 07:40:41;;;;;;;3.13;0.90;;;18.20;99.90;;;;;;4992403;28;20178;-70
2023/12/20 07:43:09;;;;;;;0.97;0.70;;;18.10;99.90;;;;;;4992127;28;20272;-70
2023/12/20 07:45:37;;;;;;;3.20;0.77;;;18.10;99.90;;;;;;4991866;28;20189;-69
2023/12/20 07:48:07;;;;;;;3.90;1.20;;;18.10;99.90;;;;;;4991732;28;20187;-70
2023/12/20 07:50:35;;;;;;;1.60;0.60;;;18.10;99.90;;;;;;4992316;28;20194;-71
2023/12/20 07:53:03;;;;;;;2.70;0.70;;;18.20;99.90;;;;;;4991772;28;20790;-70
2023/12/20 07:55:31;;;;;;;1.87;0.50;;;18.10;99.90;;;;;;4992114;28;20182;-70
2023/12/20 07:57:59;;;;;;;2.00;0.80;;;18.10;99.90;;;;;;4991585;28;20179;-70
2023/12/20 08:00:27;;;;;;;0.90;0.60;;;18.10;99.90;;;;;;4974061;28;20192;-70
2023/12/20 08:02:55;;;;;;;1.50;0.70;;;18.00;99.90;;;;;;4993100;28;20222;-70
2023/12/20 08:05:22;;;;;;;3.80;0.67;;;18.00;99.90;;;;;;4993148;28;20189;-70
2023/12/20 08:07:49;;;;;;;2.10;0.83;;;18.10;99.90;;;;;;4991246;28;20600;-70
2023/12/20 08:10:19;;;;;;;1.47;0.70;;;18.10;99.90;;;;;;4992495;28;20178;-70
2023/12/20 08:12:46;;;;;;;1.57;0.90;;;18.10;99.90;;;;;;4996746;28;20186;-70
2023/12/20 08:15:14;;;;;;;3.80;0.90;;;18.10;99.90;;;;;;4996590;28;20179;-70
2023/12/20 08:17:42;;;;;;;6.03;1.53;;;18.10;99.90;;;;;;4996762;28;20548;-70
2023/12/20 08:20:09;;;;;;;1.90;0.90;;;18.20;99.90;;;;;;4997105;28;20537;-70
2023/12/20 08:22:37;;;;;;;3.63;0.80;;;18.20;99.90;;;;;;4989915;28;20735;-70
2023/12/20 08:25:04;;;;;;;2.20;1.10;;;18.10;99.90;;;;;;4997259;28;20173;-70
2023/12/20 08:27:32;;;;;;;2.23;0.93;;;18.10;99.90;;;;;;4994828;28;20186;-70
2023/12/20 08:29:59;;;;;;;1.77;1.00;;;18.10;99.90;;;;;;4996799;28;20289;-70
2023/12/20 08:32:27;;;;;;;2.67;1.10;;;18.10;99.90;;;;;;4996927;28;20190;-70
2023/12/20 08:34:54;;;;;;;3.17;1.37;;;18.00;99.90;;;;;;4996672;28;20602;-70
2023/12/20 08:37:21;;;;;;;2.87;1.00;;;18.00;99.90;;;;;;4996224;28;20660;-70
2023/12/20 08:39:49;;;;;;;6.20;0.97;;;18.00;99.90;;;;;;4996178;28;20597;-70
2023/12/20 08:42:16;;;;;;;1.23;0.97;;;18.00;99.90;;;;;;4995933;28;20203;-70
2023/12/20 08:44:43;;;;;;;3.60;1.57;;;18.00;99.90;;;;;;5001043;28;20211;-72
2023/12/20 08:47:13;;;;;;;5.93;1.00;;;18.00;99.90;;;;;;5005664;28;20182;-70
2023/12/20 08:49:40;;;;;;;3.70;1.27;;;18.00;99.90;;;;;;4995353;28;20201;-70
2023/12/20 08:52:08;;;;;;;3.93;1.40;;;18.00;99.90;;;;;;4997998;28;20179;-70
2023/12/20 08:54:35;;;;;;;3.37;0.83;;;18.00;99.90;;;;;;4997094;28;20179;-70
2023/12/20 08:57:02;;;;;;;2.57;0.90;;;18.00;99.90;;;;;;4996021;28;20182;-70
2023/12/20 08:59:30;;;;;;;2.63;0.90;;;18.10;99.90;;;;;;4996239;28;20233;-70
2023/12/20 09:01:57;;;;;;;2.60;0.93;;;18.00;99.90;;;;;;4996013;28;20253;-70
2023/12/20 09:04:24;;;;;;;2.40;1.00;;;18.00;99.90;;;;;;4995988;28;20178;-70
2023/12/20 09:06:51;;;;;;;2.57;1.10;;;18.00;99.90;;;;;;4996189;28;20270;-70
2023/12/20 09:09:19;;;;;;;3.57;1.20;;;18.00;99.90;;;;;;4995978;28;20178;-70
2023/12/20 09:11:48;;;;;;;7.90;1.73;;;17.90;99.90;;;;;;4995882;28;20551;-70
2023/12/20 09:14:15;;;;;;;4.67;0.93;;;17.90;99.90;;;;;;4995912;28;20182;-70
2023/12/20 09:16:42;;;;;;;5.43;1.10;;;17.90;99.90;;;;;;4995864;28;20210;-70
2023/12/20 09:19:10;;;;;;;4.37;0.90;;;18.00;99.90;;;;;;4995891;28;20179;-70
2023/12/20 09:21:37;;;;;;;5.13;0.93;;;17.90;99.90;;;;;;4995976;28;20208;-71
2023/12/20 09:24:06;;;;;;;2.17;0.93;;;18.00;99.90;;;;;;4995618;28;20181;-67
2023/12/20 09:26:33;;;;;;;3.93;1.13;;;18.00;99.90;;;;;;4995763;28;20174;-70
2023/12/20 09:29:00;;;;;;;4.10;1.07;;;17.90;99.90;;;;;;4995952;28;20179;-70
2023/12/20 09:31:27;;;;;;;2.20;1.00;;;18.00;99.90;;;;;;4995689;28;20204;-70
2023/12/20 09:33:55;;;;;;;2.87;1.10;;;18.00;99.90;;;;;;4995342;28;20257;-69
2023/12/20 09:36:22;;;;;;;5.10;1.00;;;18.00;99.90;;;;;;4995186;28;20626;-69
2023/12/20 09:38:49;;;;;;;3.30;1.20;;;18.10;99.90;;;;;;4995036;28;20603;-69
2023/12/20 09:41:17;;;;;;;3.37;1.00;;;18.10;99.90;;;;;;4995158;28;20178;-69
2023/12/20 09:43:44;;;;;;;4.73;1.00;;;18.10;99.90;;;;;;4995125;28;20191;-69
2023/12/20 09:46:16;;;;;;;3.67;0.93;;;18.00;99.90;;;;;;4995332;28;20179;-70
2023/12/20 09:48:45;;;;;;;2.37;0.83;;;18.00;99.90;;;;;;4995376;28;20241;-69
2023/12/20 09:51:13;;;;;;;4.27;1.30;;;18.00;99.90;;;;;;4994902;28;20182;-69
2023/12/20 09:53:42;;;;;;;2.53;0.90;;;18.10;99.90;;;;;;4995817;28;20248;-69
2023/12/20 09:56:09;;;;;;;1.77;0.83;;;18.10;99.90;;;;;;4978562;28;20663;-70
2023/12/20 09:58:40;;;;;;;4.13;1.07;;;18.10;99.90;;;;;;4994672;28;20233;-68
2023/12/20 10:01:08;;;;;;;1.77;0.90;;;18.10;99.90;;;;;;4991762;28;20213;-69
2023/12/20 10:03:37;;;;;;;3.73;0.90;;;18.00;99.90;;;;;;4994628;28;20190;-69
2023/12/20 10:06:04;;;;;;;1.80;1.00;;;18.10;99.90;;;;;;4994361;28;20174;-70
2023/12/20 10:08:32;;;;;;;4.87;1.07;;;18.10;99.90;;;;;;4994591;28;20269;-69
2023/12/20 10:11:02;;;;;;;3.53;0.90;;;18.00;99.90;;;;;;4994235;28;20178;-69
2023/12/20 10:13:29;;;;;;;5.03;1.13;;;18.00;99.90;;;;;;4994217;28;20233;-70
2023/12/20 10:15:57;;;;;;;5.10;1.00;;;18.00;99.90;;;;;;4994733;28;20186;-70
2023/12/20 10:18:24;;;;;;;2.47;0.90;;;18.00;99.90;;;;;;4995046;28;20171;-70
2023/12/20 10:20:52;;;;;;;4.97;1.03;;;18.00;99.90;;;;;;4995315;28;20178;-70
2023/12/20 10:23:20;;;;;;;4.17;0.80;;;18.00;99.90;;;;;;4994379;28;20269;-70
2023/12/20 10:25:58;;;;;;;2.73;0.90;;;18.00;99.90;;;;;;4994689;28;20202;-70
2023/12/20 10:28:27;;;;;;;5.13;1.17;;;18.00;99.90;;;;;;4994879;28;20175;-69
2023/12/20 10:30:58;;;;;;;3.53;0.87;;;17.90;99.90;;;;;;4994507;28;20186;-69
2023/12/20 10:33:35;;;;;;;4.27;1.20;;;17.90;99.90;;;;;;4976760;28;20187;-69
2023/12/20 10:36:02;;;;;;;4.37;1.60;;;18.00;99.90;;;;;;4994466;28;20178;-70
2023/12/20 10:38:30;;;;;;;2.23;1.10;;;17.90;99.90;;;;;;4994389;28;20181;-69
2023/12/20 10:40:59;;;;;;;5.03;0.87;;;18.00;99.90;;;;;;4994117;28;21063;-70
2023/12/20 10:43:28;;;;;;;3.23;1.03;;;18.00;99.90;;;;;;4994571;28;20218;-70
2023/12/20 10:45:56;;;;;;;4.33;0.87;;;18.00;99.90;;;;;;4994252;28;20182;-70
2023/12/20 10:48:29;;;;;;;4.63;1.00;;;18.00;99.90;;;;;;4994400;28;20171;-70
2023/12/20 10:50:58;;;;;;;2.97;0.77;;;18.00;99.90;;;;;;4994050;28;20187;-70
2023/12/20 10:53:26;;;;;;;3.37;0.67;;;17.90;99.90;;;;;;4994440;28;20171;-69
2023/12/20 10:55:58;;;;;;;4.30;0.80;;;17.90;99.90;;;;;;4994007;28;20640;-69
2023/12/20 10:58:29;;;;;;;4.07;1.20;;;17.90;99.90;;;;;;4993883;28;20734;-70
2023/12/20 11:01:05;;;;;;;4.03;1.30;;;17.90;99.90;;;;;;4993988;28;20534;-69
2023/12/20 11:03:39;;;;;;;2.03;1.00;;;17.90;99.90;;;;;;4994170;28;20197;-70
2023/12/20 11:06:19;;;;;;;3.67;0.80;;;17.90;99.90;;;;;;4993979;28;20206;-70
2023/12/20 11:08:54;;;;;;;6.53;1.03;;;17.90;99.90;;;;;;4974453;28;20190;-70
2023/12/20 11:12:00;;;;;;;2.83;0.90;;;17.90;99.90;;;;;;4976650;28;20186;-70
2023/12/20 11:14:48;;;;;;;3.87;0.97;;;17.90;99.90;;;;;;4924669;28;20209;-70
2023/12/20 11:17:19;;;;;;;4.40;0.80;;;17.80;99.90;;;;;;4993948;28;20715;-69
2023/12/20 11:20:01;;;;;;;5.13;0.60;;;17.80;99.90;;;;;;4993835;28;20241;-69
2023/12/20 11:22:32;;;;;;;2.13;0.73;;;17.80;99.90;;;;;;4993261;28;20715;-69
2023/12/20 11:25:04;;;;;;;4.03;0.90;;;17.80;99.90;;;;;;4993650;28;20193;-69
2023/12/20 11:27:35;;;;;;;6.27;0.80;;;17.80;99.90;;;;;;4993671;28;20221;-69
2023/12/20 11:30:08;;;;;;;5.90;1.07;;;17.80;99.90;;;;;;4993695;28;20179;-69
2023/12/20 11:32:37;;;;;;;4.07;1.00;;;17.80;99.90;;;;;;4993506;28;20186;-70
2023/12/20 11:35:13;;;;;;;4.60;0.70;;;17.80;99.90;;;;;;4975628;28;20186;-69
2023/12/20 11:37:46;;;;;;;3.27;0.90;;;17.80;99.90;;;;;;4993661;28;20228;-69
2023/12/20 11:40:17;;;;;;;2.17;0.73;;;17.70;99.90;;;;;;4976595;28;20193;-69
2023/12/20 11:42:50;;;;;;;1.63;0.70;;;17.70;99.90;;;;;;4993834;28;20726;-69
2023/12/20 11:45:27;;;;;;;2.10;0.80;;;17.70;99.90;;;;;;4993526;28;20575;-69
2023/12/20 11:47:54;;;;;;;3.57;0.70;;;17.70;99.90;;;;;;4997095;28;20182;-69
2023/12/20 11:50:23;;;;;;;1.60;1.00;;;17.70;99.90;;;;;;4997768;28;20171;-69
2023/12/20 11:52:51;;;;;;;1.83;0.70;;;17.70;99.90;;;;;;4998269;28;20182;-68
2023/12/20 11:55:19;;;;;;;1.90;0.60;;;17.80;99.90;;;;;;4998514;28;20192;-70
2023/12/20 11:57:46;;;;;;;4.60;0.77;;;17.70;99.90;;;;;;4980042;28;20190;-71
2023/12/20 12:00:14;;;;;;;1.87;0.60;;;17.70;99.90;;;;;;4997331;28;20222;-70
2023/12/20 12:02:42;;;;;;;1.17;0.60;;;17.60;99.90;;;;;;4997221;28;20215;-70
2023/12/20 12:05:10;;;;;;;3.10;0.70;;;17.70;99.90;;;;;;4996825;28;20239;-70
2023/12/20 12:07:37;;;;;;;1.57;0.80;;;17.60;99.90;;;;;;4998934;28;20676;-70
2023/12/20 12:10:05;;;;;;;1.50;0.60;;;17.60;99.90;;;;;;4998348;28;20652;-70
2023/12/20 12:12:32;;;;;;;1.67;0.63;;;17.70;99.90;;;;;;4998537;28;20241;-69
2023/12/20 12:15:00;;;;;;;5.47;0.63;;;17.70;99.90;;;;;;4998143;28;20573;-69
2023/12/20 12:17:27;;;;;;;0.97;0.50;;;17.60;99.90;;;;;;4997710;28;20186;-70
2023/12/20 12:20:04;;;;;;;1.40;0.47;;;17.60;99.90;;;;;;4997427;28;20206;-70
2023/12/20 12:22:32;;;;;;;2.10;0.60;;;17.60;99.90;;;;;;4997451;28;20210;-69
2023/12/20 12:25:17;;;;;;;1.63;0.50;;;17.50;99.90;;;;;;4996962;28;20183;-70
2023/12/20 12:27:45;;;;;;;3.70;1.33;;;17.60;99.90;;;;;;4997170;28;20233;-70
2023/12/20 12:30:13;;;;;;;0.40;0.40;;;17.50;99.90;;;;;;4979466;28;20515;-70
2023/12/20 12:32:41;;;;;;;1.53;0.67;;;17.50;99.90;;;;;;4996451;28;20195;-68
2023/12/20 12:35:09;;;;;;;1.07;0.67;;;17.50;99.90;;;;;;4996372;28;20194;-69
2023/12/20 12:37:41;;;;;;;1.27;0.70;;;17.50;99.90;;;;;;4996630;28;20605;-69
2023/12/20 12:40:13;;;;;;;0.87;0.40;;;17.50;99.90;;;;;;4996113;28;20201;-68
2023/12/20 12:42:43;;;;;;;0.40;0.40;;;17.50;99.90;;;;;;4996258;28;20219;-68
2023/12/20 12:45:14;;;;;;;5.80;0.60;;;17.50;99.90;;;;;;4996393;28;20642;-68
2023/12/20 12:47:41;;;;;;;2.07;0.60;;;17.50;99.90;;;;;;4996084;28;20657;-69
2023/12/20 12:50:09;;;;;;;3.07;0.50;;;17.50;99.90;;;;;;4996310;28;20178;-69
2023/12/20 12:52:37;;;;;;;0.90;0.50;;;17.60;99.90;;;;;;4996225;28;20593;-69
2023/12/20 12:55:04;;;;;;;0.90;0.50;;;17.50;99.90;;;;;;4996246;28;20194;-69
2023/12/20 12:57:32;;;;;;;0.80;0.47;;;17.50;99.90;;;;;;4996306;28;20175;-70